Dades meteomassalio
Diari Summary for Diciembre 5, 2017 Units:  English    Metric   Both
« Previous Day
Next Day »
Diari Semanal Mensual Anual Personalitzat
  Maxima: Minima: Mijana:
Temperatura: TemperatureC °F -5.6 °F 0.4 °F
Rosada: DewpointC °F -6.8 °F -3.2 °F
Humitat: Humidity % 56 % 78 %
Velocitat del vent: WindSpeedKMH mph 0.0 mph 0.7 mph
Racha vent: WindSpeedGustKMH mph - -
Vent:- - SSW
Pressio: PressurehPa in 1038.5 in -
Pluja: 0.0 in    
Historical Graphs
 
 
Tabular Data for Diciembre 5, 2017
Time Temperature Dew Point Pressure Wind Wind Speed Wind Gust Humidity Rainfall Rate (Hourly) solar Conditions
TemperatureC °F DewpointC °F PressurehPa in Calm     Humidity % HourlyPrecipMM in SolarRadiationWatts/m^2 W/m2 Conditions
00:03 -2.8 °F -4.7 °F 1039.5 in Calm     87 % 0.0 in 0.0 W/m2 CLR
00:08 -2.8 °F -4.7 °F 1039.8 in Calm     87 % 0.0 in 0.0 W/m2 CLR
00:13 -2.8 °F -4.7 °F 1039.8 in Calm     87 % 0.0 in 0.0 W/m2 CLR
00:18 -2.8 °F -4.8 °F 1039.8 in Calm     86 % 0.0 in 0.0 W/m2 CLR
00:23 -2.8 °F -4.8 °F 1039.8 in Calm     86 % 0.0 in 0.0 W/m2 CLR
00:28 -2.8 °F -4.8 °F 1039.8 in Calm     86 % 0.0 in 0.0 W/m2 CLR
00:33 -2.8 °F -4.8 °F 1039.8 in Calm     86 % 0.0 in 0.0 W/m2 CLR
00:38 -2.8 °F -4.7 °F 1039.8 in Calm     87 % 0.0 in 0.0 W/m2 CLR
00:43 -2.8 °F -4.8 °F 1039.5 in Calm     86 % 0.0 in 0.0 W/m2 CLR
00:48 -2.2 °F -4.1 °F 1039.5 in Calm     87 % 0.0 in 0.0 W/m2 CLR
00:53 -2.2 °F -4.1 °F 1039.5 in Calm     87 % 0.0 in 0.0 W/m2 CLR
01:03 -2.8 °F -4.7 °F 1039.5 in Calm     87 % 0.0 in 0.0 W/m2 CLR
01:08 -2.8 °F -4.5 °F 1039.5 in Calm     88 % 0.0 in 0.0 W/m2 CLR
01:14 -2.8 °F -4.5 °F 1039.5 in Calm     88 % 0.0 in 0.0 W/m2 CLR
01:19 -2.8 °F -4.5 °F 1039.5 in Calm     88 % 0.0 in 0.0 W/m2 CLR
01:24 -2.8 °F -4.5 °F 1039.5 in Calm     88 % 0.0 in 0.0 W/m2 CLR
01:29 -2.8 °F -4.5 °F 1039.5 in Calm     88 % 0.0 in 0.0 W/m2 CLR
01:34 -2.8 °F -4.5 °F 1039.5 in Calm     88 % 0.0 in 0.0 W/m2 CLR
01:39 -2.8 °F -4.7 °F 1039.5 in Calm     87 % 0.0 in 0.0 W/m2 CLR
01:44 -2.8 °F -4.5 °F 1039.5 in Calm     88 % 0.0 in 0.0 W/m2 CLR
01:54 -2.8 °F -4.5 °F 1039.2 in Calm     88 % 0.0 in 0.0 W/m2 CLR
01:59 -2.8 °F -4.5 °F 1039.2 in Calm     88 % 0.0 in 0.0 W/m2 CLR
02:04 -2.8 °F -4.3 °F 1039.2 in Calm     89 % 0.0 in 0.0 W/m2 CLR
02:09 -2.8 °F -4.3 °F 1039.5 in Calm     89 % 0.0 in 0.0 W/m2 CLR
02:14 -2.8 °F -4.3 °F 1039.5 in Calm     89 % 0.0 in 0.0 W/m2 CLR
02:19 -2.8 °F -4.3 °F 1039.2 in Calm     89 % 0.0 in 0.0 W/m2 CLR
02:24 -3.3 °F -5.1 °F 1039.2 in Calm     88 % 0.0 in 0.0 W/m2 CLR
02:29 -3.3 °F -4.9 °F 1039.5 in Calm     89 % 0.0 in 0.0 W/m2 CLR
02:34 -2.8 °F -4.2 °F 1039.5 in Calm     90 % 0.0 in 0.0 W/m2 CLR
02:39 -2.8 °F -4.2 °F 1039.5 in Calm     90 % 0.0 in 0.0 W/m2 CLR
02:44 -3.3 °F -4.9 °F 1039.5 in Calm     89 % 0.0 in 0.0 W/m2 CLR
02:50 -3.3 °F -4.9 °F 1039.5 in Calm     89 % 0.0 in 0.0 W/m2 CLR
02:55 -3.3 °F -4.9 °F 1039.5 in Calm     89 % 0.0 in 0.0 W/m2 CLR
03:00 -3.3 °F -4.7 °F 1039.5 in Calm     90 % 0.0 in 0.0 W/m2 CLR
03:05 -3.3 °F -4.9 °F 1039.5 in Calm     89 % 0.0 in 0.0 W/m2 CLR
03:10 -3.3 °F -4.9 °F 1039.5 in Calm     89 % 0.0 in 0.0 W/m2 CLR
03:15 -3.3 °F -4.7 °F 1039.5 in Calm     90 % 0.0 in 0.0 W/m2 CLR
03:20 -3.3 °F -4.7 °F 1039.5 in Calm     90 % 0.0 in 0.0 W/m2 CLR
03:25 -3.3 °F -4.7 °F 1039.5 in Calm     90 % 0.0 in 0.0 W/m2 CLR
03:30 -3.3 °F -4.9 °F 1039.5 in WSW 3.7 mph 3.7 mph 89 % 0.0 in 0.0 W/m2 CLR
03:35 -3.3 °F -4.7 °F 1039.5 in WSW 3.7 mph 3.7 mph 90 % 0.0 in 0.0 W/m2 CLR
03:40 -3.3 °F -4.7 °F 1039.5 in Calm     90 % 0.0 in 0.0 W/m2 CLR
03:45 -3.3 °F -4.7 °F 1039.5 in WSW 5.6 mph 5.6 mph 90 % 0.0 in 0.0 W/m2 CLR
03:50 -3.3 °F -4.7 °F 1039.5 in WSW 3.7 mph 3.7 mph 90 % 0.0 in 0.0 W/m2 CLR
04:00 -3.3 °F -4.7 °F 1039.2 in WSW 5.6 mph 5.6 mph 90 % 0.0 in 0.0 W/m2 CLR
04:05 -3.3 °F -4.7 °F 1039.2 in WSW 3.7 mph 3.7 mph 90 % 0.0 in 0.0 W/m2 CLR
04:10 -3.3 °F -4.7 °F 1039.2 in Calm     90 % 0.0 in 0.0 W/m2 CLR
04:15 -3.3 °F -4.7 °F 1039.2 in Calm     90 % 0.0 in 0.0 W/m2 CLR
04:20 -3.3 °F -4.7 °F 1039.2 in Calm     90 % 0.0 in 0.0 W/m2 CLR
04:25 -3.3 °F -4.6 °F 1039.2 in Calm     91 % 0.0 in 0.0 W/m2 CLR
04:30 -3.9 °F -5.4 °F 1039.2 in Calm     89 % 0.0 in 0.0 W/m2 CLR
04:35 -3.3 °F -4.7 °F 1039.2 in Calm     90 % 0.0 in 0.0 W/m2 CLR
04:40 -3.9 °F -5.3 °F 1038.8 in Calm     90 % 0.0 in 0.0 W/m2 CLR
04:45 -3.9 °F -5.3 °F 1038.8 in Calm     90 % 0.0 in 0.0 W/m2 CLR
04:50 -3.9 °F -5.2 °F 1039.2 in Calm     91 % 0.0 in 0.0 W/m2 CLR
04:55 -3.9 °F -5.2 °F 1038.8 in Calm     91 % 0.0 in 0.0 W/m2 CLR
05:00 -3.9 °F -5.2 °F 1038.8 in Calm     91 % 0.0 in 0.0 W/m2 CLR
05:05 -3.9 °F -5.2 °F 1038.8 in Calm     91 % 0.0 in 0.0 W/m2 CLR
05:10 -3.9 °F -5.2 °F 1038.8 in Calm     91 % 0.0 in 0.0 W/m2 CLR
05:15 -4.4 °F -5.8 °F 1038.8 in Calm     90 % 0.0 in 0.0 W/m2 CLR
05:20 -4.4 °F -5.7 °F 1038.8 in Calm     91 % 0.0 in 0.0 W/m2 CLR
05:25 -4.4 °F -5.7 °F 1038.8 in Calm     91 % 0.0 in 0.0 W/m2 CLR
05:30 -4.4 °F -5.8 °F 1038.8 in Calm     90 % 0.0 in 0.0 W/m2 CLR
05:35 -4.4 °F -5.8 °F 1038.8 in Calm     90 % 0.0 in 0.0 W/m2 CLR
05:40 -4.4 °F -5.7 °F 1038.8 in Calm     91 % 0.0 in 0.0 W/m2 CLR
05:45 -4.4 °F -5.7 °F 1038.8 in Calm     91 % 0.0 in 0.0 W/m2 CLR
05:50 -4.4 °F -5.7 °F 1038.8 in Calm     91 % 0.0 in 0.0 W/m2 CLR
05:55 -5.0 °F -6.2 °F 1038.8 in Calm     91 % 0.0 in 0.0 W/m2 CLR
06:00 -5.0 °F -6.2 °F 1038.8 in Calm     91 % 0.0 in 0.0 W/m2 CLR
06:10 -5.0 °F -6.2 °F 1039.2 in Calm     91 % 0.0 in 0.0 W/m2 CLR
06:15 -5.0 °F -6.2 °F 1039.2 in Calm     91 % 0.0 in 0.0 W/m2 CLR
06:20 -5.0 °F -6.2 °F 1039.2 in Calm     91 % 0.0 in 0.0 W/m2 CLR
06:25 -5.0 °F -6.2 °F 1039.2 in Calm     91 % 0.0 in 0.0 W/m2 CLR
06:30 -5.0 °F -6.2 °F 1039.2 in Calm     91 % 0.0 in 0.0 W/m2 CLR
06:35 -5.0 °F -6.2 °F 1039.2 in Calm     91 % 0.0 in 0.0 W/m2 CLR
06:40 -5.0 °F -6.2 °F 1039.2 in Calm     91 % 0.0 in 0.0 W/m2 CLR
06:45 -5.0 °F -6.2 °F 1039.2 in Calm     91 % 0.0 in 0.0 W/m2 CLR
06:50 -5.0 °F -6.2 °F 1039.2 in Calm     91 % 0.0 in 0.0 W/m2 CLR
06:55 -5.0 °F -6.2 °F 1039.2 in Calm     91 % 0.0 in 0.0 W/m2 CLR
07:00 -4.4 °F -5.7 °F 1039.2 in Calm     91 % 0.0 in 0.0 W/m2 CLR
07:05 -4.4 °F -5.7 °F 1039.2 in Calm     91 % 0.0 in 0.0 W/m2 CLR
07:10 -5.0 °F -6.2 °F 1039.5 in Calm     91 % 0.0 in 0.0 W/m2 CLR
07:15 -5.0 °F -6.2 °F 1039.5 in Calm     91 % 0.0 in 0.0 W/m2 CLR
07:20 -5.0 °F -6.2 °F 1039.5 in Calm     91 % 0.0 in 0.0 W/m2 CLR
07:25 -5.0 °F -6.2 °F 1039.5 in Calm     91 % 0.0 in 0.0 W/m2 CLR
07:30 -5.0 °F -6.2 °F 1039.5 in WSW 1.9 mph 1.9 mph 91 % 0.0 in 0.0 W/m2 CLR
07:35 -5.0 °F -6.2 °F 1039.5 in WSW 4.8 mph 4.8 mph 91 % 0.0 in 0.0 W/m2 CLR
07:40 -5.0 °F -6.2 °F 1039.5 in WSW 1.9 mph 1.9 mph 91 % 0.0 in 0.0 W/m2 CLR
07:45 -5.0 °F -6.2 °F 1039.5 in Calm     91 % 0.0 in 0.0 W/m2 CLR
07:50 -5.0 °F -6.2 °F 1039.8 in Calm     91 % 0.0 in 0.0 W/m2 CLR
07:55 -5.0 °F -6.4 °F 1039.8 in Calm     90 % 0.0 in 0.0 W/m2 CLR
08:00 -5.6 °F -6.8 °F 1039.8 in Calm     91 % 0.0 in 0.0 W/m2 OVC
08:01 -5.6 °F -6.8 °F 1039.8 in Calm     91 % 0.0 in 0.0 W/m2 OVC
08:06 -5.0 °F -6.2 °F 1039.8 in Calm     91 % 0.0 in 0.0 W/m2 OVC
08:11 -5.0 °F -6.2 °F 1039.8 in Calm     91 % 0.0 in 5.0 W/m2 OVC
08:16 -5.0 °F -6.4 °F 1039.8 in Calm     90 % 0.0 in 7.0 W/m2 BKN
08:21 -4.4 °F -5.7 °F 1039.8 in Calm     91 % 0.0 in 11.0 W/m2 BKN
08:26 -4.4 °F -5.7 °F 1039.8 in Calm     91 % 0.0 in 12.0 W/m2 BKN
08:31 -4.4 °F -5.7 °F 1040.2 in Calm     91 % 0.0 in 14.0 W/m2 BKN
08:36 -5.0 °F -6.2 °F 1040.2 in Calm     91 % 0.0 in 18.0 W/m2 BKN
08:41 -5.0 °F -6.1 °F 1040.2 in Calm     92 % 0.0 in 30.0 W/m2 BKN
08:46 -5.0 °F -6.2 °F 1040.2 in Calm     91 % 0.0 in 40.0 W/m2 BKN
08:51 -5.0 °F -6.2 °F 1040.2 in Calm     91 % 0.0 in 46.0 W/m2 SCT
08:56 -4.4 °F -5.7 °F 1040.2 in Calm     91 % 0.0 in 65.0 W/m2 SCT
09:01 -4.4 °F -5.7 °F 1040.2 in Calm     91 % 0.0 in 77.0 W/m2 FEW
09:06 -4.4 °F -5.7 °F 1040.2 in Calm     91 % 0.0 in 62.0 W/m2 SCT
09:11 -4.4 °F -5.7 °F 1040.5 in Calm     91 % 0.0 in 83.0 W/m2 FEW
09:16 -3.9 °F -5.2 °F 1040.5 in Calm     91 % 0.0 in 93.0 W/m2 FEW
09:21 -3.9 °F -5.3 °F 1040.5 in Calm     90 % 0.0 in 83.0 W/m2 CLR
09:22 -3.9 °F -5.3 °F 1040.5 in Calm     90 % 0.0 in 95.0 W/m2 CLR
09:27 -3.3 °F -4.7 °F 1040.5 in Calm     90 % 0.0 in 123.0 W/m2 CLR
09:32 -3.3 °F -4.7 °F 1040.5 in Calm     90 % 0.0 in 132.0 W/m2 CLR
09:37 -3.3 °F -4.9 °F 1040.5 in Calm     89 % 0.0 in 142.0 W/m2 CLR
09:42 -2.8 °F -4.3 °F 1040.5 in Calm     89 % 0.0 in 167.0 W/m2 CLR
09:47 -2.8 °F -4.3 °F 1040.9 in Calm     89 % 0.0 in 178.0 W/m2 CLR
09:52 -2.2 °F -3.9 °F 1040.9 in Calm     88 % 0.0 in 109.0 W/m2 CLR
09:57 -1.7 °F -3.4 °F 1040.9 in Calm     88 % 0.0 in 204.0 W/m2 CLR
10:02 -1.7 °F -3.6 °F 1040.9 in Calm     87 % 0.0 in 105.0 W/m2 CLR
10:12 -1.1 °F -3.4 °F 1040.9 in Calm     84 % 0.0 in 248.0 W/m2 CLR
10:17 -0.6 °F -3.1 °F 1040.9 in Calm     83 % 0.0 in 262.0 W/m2 CLR
10:22 -0.6 °F -3.3 °F 1040.9 in Calm     82 % 0.0 in 278.0 W/m2 CLR
10:27 0.0 °F -2.7 °F 1040.9 in Calm     82 % 0.0 in 287.0 W/m2 CLR
10:32 0.6 °F -2.2 °F 1040.9 in Calm     82 % 0.0 in 297.0 W/m2 CLR
10:42 1.1 °F -2.3 °F 1040.9 in Calm     78 % 0.0 in 316.0 W/m2 CLR
10:47 1.7 °F -1.9 °F 1040.9 in Calm     77 % 0.0 in 325.0 W/m2 CLR
10:52 2.2 °F -1.6 °F 1041.2 in Calm     76 % 0.0 in 334.0 W/m2 CLR
10:57 2.8 °F -1.2 °F 1041.2 in Calm     75 % 0.0 in 341.0 W/m2 CLR
11:02 3.9 °F -0.3 °F 1041.2 in Calm     74 % 0.0 in 348.0 W/m2 CLR
11:07 3.9 °F -0.5 °F 1041.2 in Calm     73 % 0.0 in 357.0 W/m2 CLR
11:12 4.4 °F -0.2 °F 1041.2 in Calm     72 % 0.0 in 364.0 W/m2 CLR
11:17 4.4 °F -0.3 °F 1041.2 in Calm     71 % 0.0 in 371.0 W/m2 CLR
11:22 5.6 °F 0.3 °F 1041.2 in NW 3.2 mph 3.2 mph 69 % 0.0 in 380.0 W/m2 CLR
11:27 5.6 °F -0.3 °F 1040.9 in NNW 5.6 mph 5.6 mph 66 % 0.0 in 385.0 W/m2 CLR
11:32 6.1 °F 0.4 °F 1040.9 in NNW 7.4 mph 7.4 mph 67 % 0.0 in 394.0 W/m2 CLR
11:37 6.7 °F 0.8 °F 1040.9 in Calm     66 % 0.0 in 397.0 W/m2 CLR
11:42 7.2 °F 1.3 °F 1040.9 in North 5.6 mph 5.6 mph 66 % 0.0 in 403.0 W/m2 CLR
11:47 7.2 °F 1.1 °F 1040.9 in Calm     65 % 0.0 in 408.0 W/m2 CLR
11:52 7.8 °F 1.4 °F 1040.9 in NNW 5.6 mph 5.6 mph 64 % 0.0 in 413.0 W/m2 CLR
11:57 7.8 °F 1.6 °F 1040.9 in NW 5.6 mph 5.6 mph 65 % 0.0 in 417.0 W/m2 CLR
12:02 7.8 °F 1.4 °F 1040.9 in North 1.9 mph   64 % 0.0 in 422.0 W/m2 CLR
12:07 7.8 °F 1.2 °F 1040.9 in NNW 5.6 mph 5.6 mph 63 % 0.0 in 425.0 W/m2 CLR
12:12 7.8 °F 1.2 °F 1040.5 in NNW 5.6 mph 5.6 mph 63 % 0.0 in 429.0 W/m2 CLR
12:18 8.3 °F 1.7 °F 1040.5 in NNW 4.8 mph 4.8 mph 63 % 0.0 in 431.0 W/m2 CLR
12:23 8.3 °F 1.7 °F 1040.5 in NW 5.6 mph 5.6 mph 63 % 0.0 in 434.0 W/m2 CLR
12:28 8.3 °F 1.7 °F 1040.5 in NW 5.6 mph 5.6 mph 63 % 0.0 in 436.0 W/m2 CLR
12:33 8.3 °F 1.4 °F 1040.5 in North 5.6 mph 5.6 mph 62 % 0.0 in 436.0 W/m2 CLR
12:38 8.3 °F 1.4 °F 1040.2 in NW 5.6 mph 5.6 mph 62 % 0.0 in 439.0 W/m2 CLR
12:43 8.9 °F 2.0 °F 1040.2 in NW 5.6 mph   62 % 0.0 in 439.0 W/m2 CLR
12:48 8.9 °F 2.0 °F 1040.2 in Calm     62 % 0.0 in 439.0 W/m2 CLR
12:53 8.9 °F 1.8 °F 1039.8 in Calm     61 % 0.0 in 439.0 W/m2 CLR
12:58 8.9 °F 1.6 °F 1039.8 in Calm     60 % 0.0 in 439.0 W/m2 CLR
13:03 8.9 °F 1.8 °F 1039.8 in NW 5.6 mph 5.6 mph 61 % 0.0 in 438.0 W/m2 CLR
13:04 8.3 °F 1.0 °F 1039.8 in NW 3.7 mph 3.7 mph 60 % 0.0 in 438.0 W/m2 CLR
13:09 8.9 °F 1.6 °F 1039.5 in Calm     60 % 0.0 in 438.0 W/m2 CLR
13:14 8.9 °F 1.6 °F 1039.5 in NNE 1.9 mph   60 % 0.0 in 438.0 W/m2 CLR
13:19 9.4 °F 2.1 °F 1039.5 in Calm     60 % 0.0 in 434.0 W/m2 CLR
13:24 8.9 °F 1.3 °F 1039.5 in North 1.9 mph   59 % 0.0 in 432.0 W/m2 CLR
13:29 9.4 °F 1.8 °F 1039.5 in Calm     59 % 0.0 in 431.0 W/m2 CLR
13:34 9.4 °F 1.6 °F 1039.5 in Calm     58 % 0.0 in 427.0 W/m2 CLR
13:39 8.9 °F 1.1 °F 1039.2 in Calm   0.2 mph 58 % 0.0 in 424.0 W/m2 CLR
13:44 8.9 °F 0.8 °F 1039.2 in Calm     57 % 0.0 in 422.0 W/m2 CLR
13:49 9.4 °F 1.3 °F 1039.2 in Calm     57 % 0.0 in 415.0 W/m2 CLR
13:54 9.4 °F 1.1 °F 1039.2 in Calm     56 % 0.0 in 411.0 W/m2 CLR
13:59 9.4 °F 1.3 °F 1039.2 in Calm     57 % 0.0 in 406.0 W/m2 CLR
14:04 9.4 °F 1.3 °F 1039.2 in Calm     57 % 0.0 in 401.0 W/m2 CLR
14:09 10.0 °F 1.9 °F 1038.8 in ENE 1.9 mph 1.9 mph 57 % 0.0 in 396.0 W/m2 CLR
14:14 10.0 °F 1.9 °F 1038.8 in Calm     57 % 0.0 in 388.0 W/m2 CLR
14:19 10.0 °F 1.9 °F 1038.8 in Calm     57 % 0.0 in 383.0 W/m2 CLR
14:24 10.0 °F 1.9 °F 1038.8 in Calm     57 % 0.0 in 376.0 W/m2 CLR
14:29 10.0 °F 1.9 °F 1038.8 in East 5.6 mph 5.6 mph 57 % 0.0 in 366.0 W/m2 CLR
14:34 10.0 °F 1.6 °F 1038.8 in Calm     56 % 0.0 in 362.0 W/m2 CLR
14:39 10.6 °F 2.4 °F 1038.8 in SE 5.6 mph 5.6 mph 57 % 0.0 in 353.0 W/m2 CLR
14:44 10.0 °F 1.9 °F 1038.8 in SE 3.7 mph 3.7 mph 57 % 0.0 in 346.0 W/m2 CLR
14:49 10.0 °F 1.6 °F 1038.5 in ENE 1.9 mph   56 % 0.0 in 334.0 W/m2 CLR
14:54 10.6 °F 2.4 °F 1038.5 in Calm     57 % 0.0 in 329.0 W/m2 CLR
14:59 10.6 °F 2.1 °F 1038.5 in Calm     56 % 0.0 in 320.0 W/m2 CLR
15:04 10.6 °F 2.1 °F 1038.5 in Calm     56 % 0.0 in 311.0 W/m2 CLR
15:09 10.0 °F 1.6 °F 1038.5 in ENE 1.6 mph 1.8 mph 56 % 0.0 in 302.0 W/m2 CLR
15:14 10.0 °F 1.6 °F 1038.5 in ESE 3.7 mph 3.7 mph 56 % 0.0 in 292.0 W/m2 CLR
15:19 10.0 °F 1.6 °F 1038.5 in East 1.9 mph   56 % 0.0 in 279.0 W/m2 CLR
15:24 10.0 °F 1.6 °F 1038.5 in East 1.9 mph 1.9 mph 56 % 0.0 in 265.0 W/m2 CLR
15:29 10.0 °F 1.6 °F 1038.5 in East 5.6 mph 5.6 mph 56 % 0.0 in 251.0 W/m2 CLR
15:34 10.0 °F 1.6 °F 1038.5 in ESE 3.7 mph 3.7 mph 56 % 0.0 in 241.0 W/m2 CLR
15:39 10.0 °F 1.6 °F 1038.5 in ENE 5.6 mph 5.6 mph 56 % 0.0 in 229.0 W/m2 CLR
15:45 10.0 °F 1.9 °F 1038.5 in East 1.9 mph 1.9 mph 57 % 0.0 in 218.0 W/m2 CLR
15:50 10.0 °F 1.9 °F 1038.5 in East 3.7 mph   57 % 0.0 in 204.0 W/m2 CLR
15:55 9.4 °F 1.1 °F 1038.5 in Calm     56 % 0.0 in 192.0 W/m2 CLR
16:00 9.4 °F 1.1 °F 1038.5 in ENE 5.6 mph 5.6 mph 56 % 0.0 in 178.0 W/m2 CLR
16:05 9.4 °F 1.1 °F 1038.5 in Calm     56 % 0.0 in 162.0 W/m2 CLR
16:15 8.9 °F 0.6 °F 1038.5 in NE 1.9 mph 1.9 mph 56 % 0.0 in 135.0 W/m2 CLR
16:20 8.9 °F 0.6 °F 1038.5 in Calm     56 % 0.0 in 123.0 W/m2 CLR
16:25 8.9 °F 0.8 °F 1038.5 in ENE 3.7 mph   57 % 0.0 in 107.0 W/m2 CLR
16:30 8.9 °F 0.8 °F 1038.5 in Calm     57 % 0.0 in 95.0 W/m2 CLR
16:35 8.3 °F 0.3 °F 1038.5 in Calm     57 % 0.0 in 83.0 W/m2 CLR
16:40 8.3 °F 0.3 °F 1038.5 in Calm     57 % 0.0 in 63.0 W/m2 FEW
16:45 7.8 °F -0.2 °F 1038.5 in Calm     57 % 0.0 in 54.0 W/m2 SCT
16:50 7.8 °F -0.2 °F 1038.5 in Calm     57 % 0.0 in 47.0 W/m2 SCT
16:55 7.2 °F -0.5 °F 1038.5 in Calm     58 % 0.0 in 37.0 W/m2 BKN
16:56 7.2 °F -0.5 °F 1038.5 in Calm     58 % 0.0 in 35.0 W/m2 BKN
17:01 6.7 °F -1.0 °F 1038.5 in Calm     58 % 0.0 in 25.0 W/m2 BKN
17:06 6.1 °F -1.3 °F 1038.5 in Calm     59 % 0.0 in 16.0 W/m2 BKN
17:11 5.6 °F -1.8 °F 1038.5 in Calm     59 % 0.0 in 14.0 W/m2 BKN
17:16 5.0 °F -2.1 °F 1038.5 in Calm     60 % 0.0 in 12.0 W/m2 BKN
17:21 5.0 °F -1.9 °F 1038.5 in Calm     61 % 0.0 in 11.0 W/m2 BKN
17:26 4.4 °F -2.4 °F 1038.5 in Calm     61 % 0.0 in 7.0 W/m2 BKN
17:31 3.9 °F -2.7 °F 1038.5 in Calm     62 % 0.0 in 5.0 W/m2 OVC
17:36 3.9 °F -2.7 °F 1038.5 in Calm     62 % 0.0 in 0.0 W/m2 OVC
17:41 3.3 °F -3.3 °F 1038.5 in Calm     62 % 0.0 in 0.0 W/m2 CLR
17:46 2.8 °F -3.6 °F 1038.5 in Calm     63 % 0.0 in 0.0 W/m2 CLR
17:51 2.8 °F -3.4 °F 1038.5 in Calm     64 % 0.0 in 0.0 W/m2 CLR
17:57 2.8 °F -3.2 °F 1038.5 in Calm     65 % 0.0 in 0.0 W/m2 CLR
18:02 2.8 °F -3.2 °F 1038.5 in Calm     65 % 0.0 in 0.0 W/m2 CLR
18:07 3.3 °F -2.4 °F 1038.5 in Calm     66 % 0.0 in 0.0 W/m2 CLR
18:12 2.8 °F -2.7 °F 1038.5 in Calm     67 % 0.0 in 0.0 W/m2 CLR
18:17 3.3 °F -2.2 °F 1038.5 in Calm     67 % 0.0 in 0.0 W/m2 CLR
18:22 3.3 °F -2.0 °F 1038.5 in Calm     68 % 0.0 in 0.0 W/m2 CLR
18:28 3.3 °F -2.2 °F 1038.8 in Calm     67 % 0.0 in 0.0 W/m2 CLR
18:33 2.8 °F -2.3 °F 1038.5 in Calm     69 % 0.0 in 0.0 W/m2 CLR
18:37 2.2 °F -2.9 °F 1038.8 in Calm     69 % 0.0 in 0.0 W/m2 CLR
18:43 2.2 °F -2.7 °F 1038.8 in Calm     70 % 0.0 in 0.0 W/m2 CLR
18:48 1.7 °F -2.8 °F 1038.8 in Calm     72 % 0.0 in 0.0 W/m2 CLR
18:53 1.7 °F -3.1 °F 1038.8 in Calm     71 % 0.0 in 0.0 W/m2 CLR
18:58 1.1 °F -3.2 °F 1038.8 in Calm     73 % 0.0 in 0.0 W/m2 CLR
19:03 1.1 °F -3.0 °F 1038.8 in Calm     74 % 0.0 in 0.0 W/m2 CLR
19:08 0.6 °F -3.6 °F 1038.8 in Calm     74 % 0.0 in 0.0 W/m2 CLR
19:13 0.6 °F -3.6 °F 1038.8 in Calm     74 % 0.0 in 0.0 W/m2 CLR
19:18 0.0 °F -3.9 °F 1038.8 in Calm     75 % 0.0 in 0.0 W/m2 CLR
19:23 -0.6 °F -4.4 °F 1038.8 in Calm     75 % 0.0 in 0.0 W/m2 CLR
19:28 -0.6 °F -4.3 °F 1038.8 in Calm     76 % 0.0 in 0.0 W/m2 CLR
19:33 -1.1 °F -4.8 °F 1038.8 in Calm     76 % 0.0 in 0.0 W/m2 CLR
19:38 -1.1 °F -4.6 °F 1038.8 in Calm     77 % 0.0 in 0.0 W/m2 CLR
19:43 -1.1 °F -4.6 °F 1039.2 in Calm     77 % 0.0 in 0.0 W/m2 CLR
19:48 -0.6 °F -4.1 °F 1039.2 in Calm     77 % 0.0 in 0.0 W/m2 CLR
19:53 -1.1 °F -4.6 °F 1039.2 in Calm     77 % 0.0 in 0.0 W/m2 CLR
19:58 -1.1 °F -4.4 °F 1039.2 in Calm     78 % 0.0 in 0.0 W/m2 CLR
20:03 -0.6 °F -3.9 °F 1039.2 in Calm     78 % 0.0 in 0.0 W/m2 CLR
20:08 -0.6 °F -3.8 °F 1039.2 in Calm     79 % 0.0 in 0.0 W/m2 CLR
20:13 -1.1 °F -4.3 °F 1039.2 in Calm     79 % 0.0 in 0.0 W/m2 CLR
20:18 -1.1 °F -4.3 °F 1039.2 in Calm     79 % 0.0 in 0.0 W/m2 CLR
20:23 -1.1 °F -4.1 °F 1039.2 in Calm     80 % 0.0 in 0.0 W/m2 CLR
20:28 -1.7 °F -4.7 °F 1039.2 in Calm     80 % 0.0 in 0.0 W/m2 CLR
20:33 -1.7 °F -4.7 °F 1039.5 in Calm     80 % 0.0 in 0.0 W/m2 CLR
20:38 -1.7 °F -4.7 °F 1039.5 in Calm     80 % 0.0 in 0.0 W/m2 CLR
20:43 -1.7 °F -4.7 °F 1039.5 in Calm     80 % 0.0 in 0.0 W/m2 CLR
20:48 -1.7 °F -4.5 °F 1039.5 in Calm     81 % 0.0 in 0.0 W/m2 CLR
20:53 -1.7 °F -4.5 °F 1039.5 in Calm     81 % 0.0 in 0.0 W/m2 CLR
20:58 -1.7 °F -4.5 °F 1039.5 in Calm     81 % 0.0 in 0.0 W/m2 CLR
21:03 -2.2 °F -4.9 °F 1039.5 in Calm     82 % 0.0 in 0.0 W/m2 CLR
21:08 -2.2 °F -4.9 °F 1039.2 in Calm     82 % 0.0 in 0.0 W/m2 CLR
21:13 -2.2 °F -4.9 °F 1039.5 in Calm     82 % 0.0 in 0.0 W/m2 CLR
21:18 -2.8 °F -5.4 °F 1039.5 in Calm     82 % 0.0 in 0.0 W/m2 CLR
21:23 -2.8 °F -5.4 °F 1039.5 in Calm     82 % 0.0 in 0.0 W/m2 CLR
21:28 -2.8 °F -5.3 °F 1039.5 in Calm     83 % 0.0 in 0.0 W/m2 CLR
21:33 -2.8 °F -5.3 °F 1039.5 in Calm     83 % 0.0 in 0.0 W/m2 CLR
21:38 -2.8 °F -5.3 °F 1039.5 in Calm     83 % 0.0 in 0.0 W/m2 CLR
21:43 -3.3 °F -5.8 °F 1039.5 in Calm     83 % 0.0 in 0.0 W/m2 CLR
21:48 -3.3 °F -5.8 °F 1039.5 in Calm     83 % 0.0 in 0.0 W/m2 CLR
21:53 -3.3 °F -5.8 °F 1039.5 in Calm     83 % 0.0 in 0.0 W/m2 CLR
21:59 -3.3 °F -5.7 °F 1039.5 in Calm     84 % 0.0 in 0.0 W/m2 CLR
22:04 -3.3 °F -5.7 °F 1039.5 in Calm     84 % 0.0 in 0.0 W/m2 CLR
22:09 -3.3 °F -5.7 °F 1039.5 in Calm     84 % 0.0 in 0.0 W/m2 CLR
22:14 -3.3 °F -5.7 °F 1039.5 in Calm     84 % 0.0 in 0.0 W/m2 CLR
22:19 -3.3 °F -5.5 °F 1039.5 in Calm     85 % 0.0 in 0.0 W/m2 CLR
22:24 -3.3 °F -5.5 °F 1039.5 in Calm     85 % 0.0 in 0.0 W/m2 CLR
22:29 -3.3 °F -5.7 °F 1039.5 in Calm     84 % 0.0 in 0.0 W/m2 CLR
22:34 -3.3 °F -5.5 °F 1039.5 in Calm     85 % 0.0 in 0.0 W/m2 CLR
22:39 -3.9 °F -6.1 °F 1039.5 in Calm     85 % 0.0 in 0.0 W/m2 CLR
22:44 -3.9 °F -6.1 °F 1039.5 in Calm     85 % 0.0 in 0.0 W/m2 CLR
22:49 -3.3 °F -5.5 °F 1039.5 in Calm     85 % 0.0 in 0.0 W/m2 CLR
22:54 -3.3 °F -5.5 °F 1039.5 in Calm     85 % 0.0 in 0.0 W/m2 CLR
22:59 -3.3 °F -5.3 °F 1039.5 in Calm     86 % 0.0 in 0.0 W/m2 CLR
23:04 -3.3 °F -5.3 °F 1039.5 in Calm     86 % 0.0 in 0.0 W/m2 CLR
23:09 -3.3 °F -5.3 °F 1039.5 in Calm     86 % 0.0 in 0.0 W/m2 CLR
23:14 -3.3 °F -5.2 °F 1039.5 in Calm     87 % 0.0 in 0.0 W/m2 CLR
23:19 -3.3 °F -5.3 °F 1039.5 in Calm     86 % 0.0 in 0.0 W/m2 CLR
23:24 -3.3 °F -5.3 °F 1039.8 in Calm     86 % 0.0 in 0.0 W/m2 CLR
23:29 -3.3 °F -5.3 °F 1039.8 in Calm     86 % 0.0 in 0.0 W/m2 CLR
23:34 -3.3 °F -5.3 °F 1039.8 in Calm     86 % 0.0 in 0.0 W/m2 CLR
23:39 -3.3 °F -5.3 °F 1039.8 in Calm     86 % 0.0 in 0.0 W/m2 CLR
23:44 -3.3 °F -5.2 °F 1039.5 in Calm     87 % 0.0 in 0.0 W/m2 CLR
23:49 -3.3 °F -5.2 °F 1039.8 in Calm     87 % 0.0 in 0.0 W/m2 CLR
23:54 -3.3 °F -5.2 °F 1039.8 in Calm     87 % 0.0 in 0.0 W/m2 CLR
23:59 -3.3 °F -5.2 °F 1039.5 in Calm     87 % 0.0 in 0.0 W/m2 CLR
Lo Temps de Massalio
Compliments of Weather Underground - 1.25 mb